sensor_id;sensor_type;location;lat;lon;timestamp;P1;durP1;ratioP1;P2;durP2;ratioP2
75997;SDS011;64685;48.762;44.822;2023-07-09T00:13:32;14.00;;;4.78;;
75997;SDS011;64685;48.762;44.822;2023-07-09T00:18:35;16.73;;;5.68;;
75997;SDS011;64685;48.762;44.822;2023-07-09T00:23:37;18.67;;;4.85;;
75997;SDS011;64685;48.762;44.822;2023-07-09T00:28:43;12.70;;;5.13;;
75997;SDS011;64685;48.762;44.822;2023-07-09T00:33:48;15.07;;;5.00;;
75997;SDS011;64685;48.762;44.822;2023-07-09T00:38:51;17.65;;;5.40;;
75997;SDS011;64685;48.762;44.822;2023-07-09T00:43:53;11.98;;;4.72;;
75997;SDS011;64685;48.762;44.822;2023-07-09T00:54:06;15.30;;;5.72;;
75997;SDS011;64685;48.762;44.822;2023-07-09T00:59:17;20.00;;;4.80;;
75997;SDS011;64685;48.762;44.822;2023-07-09T01:04:22;19.25;;;5.70;;
75997;SDS011;64685;48.762;44.822;2023-07-09T01:09:27;15.20;;;5.75;;
75997;SDS011;64685;48.762;44.822;2023-07-09T01:14:29;17.48;;;5.00;;
75997;SDS011;64685;48.762;44.822;2023-07-09T01:19:38;12.20;;;5.25;;
75997;SDS011;64685;48.762;44.822;2023-07-09T01:29:57;15.30;;;5.68;;
75997;SDS011;64685;48.762;44.822;2023-07-09T01:35:04;15.40;;;5.50;;
75997;SDS011;64685;48.762;44.822;2023-07-09T01:40:09;11.63;;;5.43;;
75997;SDS011;64685;48.762;44.822;2023-07-09T01:45:30;16.02;;;5.45;;
75997;SDS011;64685;48.762;44.822;2023-07-09T01:50:35;14.40;;;6.30;;
75997;SDS011;64685;48.762;44.822;2023-07-09T01:55:37;14.80;;;6.35;;
75997;SDS011;64685;48.762;44.822;2023-07-09T02:00:40;17.02;;;6.55;;
75997;SDS011;64685;48.762;44.822;2023-07-09T02:05:44;16.20;;;6.57;;
75997;SDS011;64685;48.762;44.822;2023-07-09T02:10:49;17.95;;;6.20;;
75997;SDS011;64685;48.762;44.822;2023-07-09T02:15:52;13.10;;;7.00;;
75997;SDS011;64685;48.762;44.822;2023-07-09T02:20:55;15.73;;;7.28;;
75997;SDS011;64685;48.762;44.822;2023-07-09T02:25:58;17.80;;;6.93;;
75997;SDS011;64685;48.762;44.822;2023-07-09T02:31:00;21.08;;;8.27;;
75997;SDS011;64685;48.762;44.822;2023-07-09T02:36:05;16.83;;;7.72;;
75997;SDS011;64685;48.762;44.822;2023-07-09T02:41:08;19.70;;;8.63;;
75997;SDS011;64685;48.762;44.822;2023-07-09T02:46:11;20.85;;;8.88;;
75997;SDS011;64685;48.762;44.822;2023-07-09T02:51:13;19.45;;;10.07;;
75997;SDS011;64685;48.762;44.822;2023-07-09T02:56:16;18.10;;;9.30;;
75997;SDS011;64685;48.762;44.822;2023-07-09T03:01:19;19.92;;;9.43;;
75997;SDS011;64685;48.762;44.822;2023-07-09T03:06:27;19.52;;;9.68;;
75997;SDS011;64685;48.762;44.822;2023-07-09T03:11:30;20.05;;;9.63;;
75997;SDS011;64685;48.762;44.822;2023-07-09T03:16:34;17.80;;;9.15;;
75997;SDS011;64685;48.762;44.822;2023-07-09T03:21:37;20.73;;;9.38;;
75997;SDS011;64685;48.762;44.822;2023-07-09T03:26:40;18.83;;;9.13;;
75997;SDS011;64685;48.762;44.822;2023-07-09T03:31:43;21.35;;;9.45;;
75997;SDS011;64685;48.762;44.822;2023-07-09T03:36:46;19.88;;;9.43;;
75997;SDS011;64685;48.762;44.822;2023-07-09T03:46:51;15.55;;;9.18;;
75997;SDS011;64685;48.762;44.822;2023-07-09T03:51:54;16.27;;;9.70;;
75997;SDS011;64685;48.762;44.822;2023-07-09T03:56:56;23.25;;;9.35;;
75997;SDS011;64685;48.762;44.822;2023-07-09T04:01:59;15.90;;;9.05;;
75997;SDS011;64685;48.762;44.822;2023-07-09T04:07:03;19.77;;;9.30;;
75997;SDS011;64685;48.762;44.822;2023-07-09T04:12:06;16.38;;;8.85;;
75997;SDS011;64685;48.762;44.822;2023-07-09T04:17:09;17.20;;;9.18;;
75997;SDS011;64685;48.762;44.822;2023-07-09T04:22:12;17.40;;;8.88;;
75997;SDS011;64685;48.762;44.822;2023-07-09T04:27:14;16.45;;;8.27;;
75997;SDS011;64685;48.762;44.822;2023-07-09T04:32:17;16.25;;;7.75;;
75997;SDS011;64685;48.762;44.822;2023-07-09T04:37:20;12.63;;;7.30;;
75997;SDS011;64685;48.762;44.822;2023-07-09T04:42:22;16.17;;;6.95;;
75997;SDS011;64685;48.762;44.822;2023-07-09T04:47:25;13.30;;;6.13;;
75997;SDS011;64685;48.762;44.822;2023-07-09T04:52:27;12.05;;;6.43;;
75997;SDS011;64685;48.762;44.822;2023-07-09T04:57:30;13.57;;;5.97;;
75997;SDS011;64685;48.762;44.822;2023-07-09T05:02:32;13.25;;;5.95;;
75997;SDS011;64685;48.762;44.822;2023-07-09T05:07:35;12.23;;;6.07;;
75997;SDS011;64685;48.762;44.822;2023-07-09T05:12:51;13.82;;;5.97;;
75997;SDS011;64685;48.762;44.822;2023-07-09T05:17:56;11.57;;;5.45;;
75997;SDS011;64685;48.762;44.822;2023-07-09T05:22:59;9.75;;;4.82;;
75997;SDS011;64685;48.762;44.822;2023-07-09T05:28:02;9.85;;;4.85;;
75997;SDS011;64685;48.762;44.822;2023-07-09T05:33:05;10.55;;;5.22;;
75997;SDS011;64685;48.762;44.822;2023-07-09T05:38:08;11.18;;;5.15;;
75997;SDS011;64685;48.762;44.822;2023-07-09T05:43:11;8.77;;;4.65;;
75997;SDS011;64685;48.762;44.822;2023-07-09T05:48:13;11.05;;;5.53;;
75997;SDS011;64685;48.762;44.822;2023-07-09T05:53:16;8.65;;;4.45;;
75997;SDS011;64685;48.762;44.822;2023-07-09T05:58:18;10.93;;;5.32;;
75997;SDS011;64685;48.762;44.822;2023-07-09T06:03:21;11.25;;;5.57;;
75997;SDS011;64685;48.762;44.822;2023-07-09T06:08:25;9.93;;;4.75;;
75997;SDS011;64685;48.762;44.822;2023-07-09T06:18:33;10.30;;;4.10;;
75997;SDS011;64685;48.762;44.822;2023-07-09T06:23:37;9.98;;;4.20;;
75997;SDS011;64685;48.762;44.822;2023-07-09T06:28:40;10.10;;;4.72;;
75997;SDS011;64685;48.762;44.822;2023-07-09T06:33:42;11.38;;;4.35;;
75997;SDS011;64685;48.762;44.822;2023-07-09T06:38:45;11.88;;;4.70;;
75997;SDS011;64685;48.762;44.822;2023-07-09T06:43:48;13.32;;;4.43;;
75997;SDS011;64685;48.762;44.822;2023-07-09T06:48:51;9.93;;;4.82;;
75997;SDS011;64685;48.762;44.822;2023-07-09T06:53:53;13.13;;;4.75;;
75997;SDS011;64685;48.762;44.822;2023-07-09T06:58:56;10.75;;;4.72;;
75997;SDS011;64685;48.762;44.822;2023-07-09T07:03:58;11.23;;;4.07;;
75997;SDS011;64685;48.762;44.822;2023-07-09T07:09:02;11.13;;;4.65;;
75997;SDS011;64685;48.762;44.822;2023-07-09T07:19:08;9.35;;;4.32;;
75997;SDS011;64685;48.762;44.822;2023-07-09T07:24:12;9.50;;;4.60;;
75997;SDS011;64685;48.762;44.822;2023-07-09T07:29:14;10.70;;;4.80;;
75997;SDS011;64685;48.762;44.822;2023-07-09T07:34:17;10.85;;;4.22;;
75997;SDS011;64685;48.762;44.822;2023-07-09T07:39:20;9.13;;;3.75;;
75997;SDS011;64685;48.762;44.822;2023-07-09T07:44:22;11.60;;;4.65;;
75997;SDS011;64685;48.762;44.822;2023-07-09T07:49:26;9.52;;;4.25;;
75997;SDS011;64685;48.762;44.822;2023-07-09T07:54:29;11.57;;;4.60;;
75997;SDS011;64685;48.762;44.822;2023-07-09T07:59:33;12.63;;;4.20;;
75997;SDS011;64685;48.762;44.822;2023-07-09T08:04:36;11.18;;;4.32;;
75997;SDS011;64685;48.762;44.822;2023-07-09T08:09:39;11.95;;;5.13;;
75997;SDS011;64685;48.762;44.822;2023-07-09T08:14:42;12.45;;;4.78;;
75997;SDS011;64685;48.762;44.822;2023-07-09T08:19:48;13.55;;;4.70;;
75997;SDS011;64685;48.762;44.822;2023-07-09T08:24:55;11.48;;;4.32;;
75997;SDS011;64685;48.762;44.822;2023-07-09T08:29:57;11.85;;;4.68;;
75997;SDS011;64685;48.762;44.822;2023-07-09T08:35:00;10.35;;;4.35;;
75997;SDS011;64685;48.762;44.822;2023-07-09T08:40:07;15.65;;;5.18;;
75997;SDS011;64685;48.762;44.822;2023-07-09T08:50:32;9.55;;;3.85;;
75997;SDS011;64685;48.762;44.822;2023-07-09T08:55:40;8.85;;;4.05;;
75997;SDS011;64685;48.762;44.822;2023-07-09T09:00:56;9.38;;;3.70;;
75997;SDS011;64685;48.762;44.822;2023-07-09T09:06:17;8.02;;;3.80;;
75997;SDS011;64685;48.762;44.822;2023-07-09T09:16:47;9.13;;;4.05;;
75997;SDS011;64685;48.762;44.822;2023-07-09T09:21:54;8.30;;;3.72;;
75997;SDS011;64685;48.762;44.822;2023-07-09T09:27:07;11.82;;;3.75;;
75997;SDS011;64685;48.762;44.822;2023-07-09T09:32:18;11.27;;;4.30;;
75997;SDS011;64685;48.762;44.822;2023-07-09T09:37:29;11.30;;;4.03;;
75997;SDS011;64685;48.762;44.822;2023-07-09T09:42:33;11.77;;;4.22;;
75997;SDS011;64685;48.762;44.822;2023-07-09T09:47:36;9.45;;;4.80;;
75997;SDS011;64685;48.762;44.822;2023-07-09T09:52:38;10.02;;;4.40;;
75997;SDS011;64685;48.762;44.822;2023-07-09T09:57:46;8.73;;;4.28;;
75997;SDS011;64685;48.762;44.822;2023-07-09T10:02:56;9.82;;;4.30;;
75997;SDS011;64685;48.762;44.822;2023-07-09T10:08:08;7.18;;;3.80;;
75997;SDS011;64685;48.762;44.822;2023-07-09T10:13:30;13.27;;;4.80;;
75997;SDS011;64685;48.762;44.822;2023-07-09T10:40:15;10.85;;;4.53;;
75997;SDS011;64685;48.762;44.822;2023-07-09T10:45:47;12.30;;;4.65;;
75997;SDS011;64685;48.762;44.822;2023-07-09T10:50:55;10.02;;;4.50;;
75997;SDS011;64685;48.762;44.822;2023-07-09T11:01:04;8.30;;;4.10;;
75997;SDS011;64685;48.762;44.822;2023-07-09T11:11:41;8.45;;;4.13;;
75997;SDS011;64685;48.762;44.822;2023-07-09T11:16:47;8.48;;;4.63;;
75997;SDS011;64685;48.762;44.822;2023-07-09T11:32:56;9.52;;;4.28;;
75997;SDS011;64685;48.762;44.822;2023-07-09T11:38:23;9.77;;;4.10;;
75997;SDS011;64685;48.762;44.822;2023-07-09T11:43:33;10.82;;;3.78;;
75997;SDS011;64685;48.762;44.822;2023-07-09T11:48:37;9.20;;;3.80;;
75997;SDS011;64685;48.762;44.822;2023-07-09T11:53:55;8.20;;;3.58;;
75997;SDS011;64685;48.762;44.822;2023-07-09T11:58:57;8.93;;;4.35;;
75997;SDS011;64685;48.762;44.822;2023-07-09T12:04:00;8.30;;;3.97;;
75997;SDS011;64685;48.762;44.822;2023-07-09T12:09:03;9.40;;;4.45;;
75997;SDS011;64685;48.762;44.822;2023-07-09T12:14:11;9.98;;;3.80;;
75997;SDS011;64685;48.762;44.822;2023-07-09T12:19:16;9.23;;;3.95;;
75997;SDS011;64685;48.762;44.822;2023-07-09T12:24:22;7.95;;;3.35;;
75997;SDS011;64685;48.762;44.822;2023-07-09T12:29:27;10.27;;;3.60;;
75997;SDS011;64685;48.762;44.822;2023-07-09T12:34:31;10.18;;;4.07;;
75997;SDS011;64685;48.762;44.822;2023-07-09T12:39:37;8.13;;;3.50;;
75997;SDS011;64685;48.762;44.822;2023-07-09T12:44:39;7.13;;;3.22;;
75997;SDS011;64685;48.762;44.822;2023-07-09T12:49:43;8.18;;;3.25;;
75997;SDS011;64685;48.762;44.822;2023-07-09T12:59:59;8.25;;;3.10;;
75997;SDS011;64685;48.762;44.822;2023-07-09T13:05:06;7.32;;;3.13;;
75997;SDS011;64685;48.762;44.822;2023-07-09T13:10:24;8.40;;;2.90;;
75997;SDS011;64685;48.762;44.822;2023-07-09T13:20:32;7.28;;;3.15;;
75997;SDS011;64685;48.762;44.822;2023-07-09T13:25:38;6.40;;;3.00;;
75997;SDS011;64685;48.762;44.822;2023-07-09T13:30:50;6.40;;;3.10;;
75997;SDS011;64685;48.762;44.822;2023-07-09T13:35:54;8.18;;;3.42;;
75997;SDS011;64685;48.762;44.822;2023-07-09T13:40:57;6.35;;;3.20;;
75997;SDS011;64685;48.762;44.822;2023-07-09T13:46:03;4.72;;;2.40;;
75997;SDS011;64685;48.762;44.822;2023-07-09T13:56:19;7.43;;;3.55;;
75997;SDS011;64685;48.762;44.822;2023-07-09T14:01:23;4.88;;;2.55;;
75997;SDS011;64685;48.762;44.822;2023-07-09T14:06:27;5.38;;;2.40;;
75997;SDS011;64685;48.762;44.822;2023-07-09T14:11:29;7.93;;;2.90;;
75997;SDS011;64685;48.762;44.822;2023-07-09T14:21:34;7.57;;;3.17;;
75997;SDS011;64685;48.762;44.822;2023-07-09T14:26:37;7.03;;;3.25;;
75997;SDS011;64685;48.762;44.822;2023-07-09T14:31:40;8.15;;;2.80;;
75997;SDS011;64685;48.762;44.822;2023-07-09T14:36:43;6.38;;;2.90;;
75997;SDS011;64685;48.762;44.822;2023-07-09T14:41:46;8.82;;;2.92;;
75997;SDS011;64685;48.762;44.822;2023-07-09T14:46:50;7.93;;;3.22;;
75997;SDS011;64685;48.762;44.822;2023-07-09T14:51:53;7.32;;;2.97;;
75997;SDS011;64685;48.762;44.822;2023-07-09T14:56:57;7.25;;;3.10;;
75997;SDS011;64685;48.762;44.822;2023-07-09T15:02:01;7.53;;;3.03;;
75997;SDS011;64685;48.762;44.822;2023-07-09T15:07:04;5.45;;;2.42;;
75997;SDS011;64685;48.762;44.822;2023-07-09T15:12:15;6.82;;;2.65;;
75997;SDS011;64685;48.762;44.822;2023-07-09T15:17:21;6.25;;;3.00;;
75997;SDS011;64685;48.762;44.822;2023-07-09T15:22:33;6.57;;;2.90;;
75997;SDS011;64685;48.762;44.822;2023-07-09T15:27:37;8.98;;;3.10;;
75997;SDS011;64685;48.762;44.822;2023-07-09T15:32:41;5.82;;;2.95;;
75997;SDS011;64685;48.762;44.822;2023-07-09T15:37:44;6.97;;;2.75;;
75997;SDS011;64685;48.762;44.822;2023-07-09T15:42:54;5.18;;;2.35;;
75997;SDS011;64685;48.762;44.822;2023-07-09T15:47:59;7.30;;;2.63;;
75997;SDS011;64685;48.762;44.822;2023-07-09T15:53:04;5.43;;;2.53;;
75997;SDS011;64685;48.762;44.822;2023-07-09T15:58:20;8.60;;;2.90;;
75997;SDS011;64685;48.762;44.822;2023-07-09T16:03:26;7.70;;;2.83;;
75997;SDS011;64685;48.762;44.822;2023-07-09T16:08:29;10.23;;;3.13;;
75997;SDS011;64685;48.762;44.822;2023-07-09T16:13:31;10.45;;;2.83;;
75997;SDS011;64685;48.762;44.822;2023-07-09T16:18:34;5.88;;;3.00;;
75997;SDS011;64685;48.762;44.822;2023-07-09T16:23:36;6.70;;;3.15;;
75997;SDS011;64685;48.762;44.822;2023-07-09T16:28:39;7.03;;;3.13;;
75997;SDS011;64685;48.762;44.822;2023-07-09T16:33:42;9.43;;;4.38;;
75997;SDS011;64685;48.762;44.822;2023-07-09T16:38:45;11.02;;;3.75;;
75997;SDS011;64685;48.762;44.822;2023-07-09T16:43:48;11.18;;;4.35;;
75997;SDS011;64685;48.762;44.822;2023-07-09T16:48:51;7.53;;;3.78;;
75997;SDS011;64685;48.762;44.822;2023-07-09T16:53:56;8.90;;;3.90;;
75997;SDS011;64685;48.762;44.822;2023-07-09T16:59:00;13.13;;;6.32;;
75997;SDS011;64685;48.762;44.822;2023-07-09T17:04:22;10.48;;;4.55;;
75997;SDS011;64685;48.762;44.822;2023-07-09T17:09:32;11.43;;;4.63;;
75997;SDS011;64685;48.762;44.822;2023-07-09T17:14:35;9.82;;;4.38;;
75997;SDS011;64685;48.762;44.822;2023-07-09T17:19:40;11.10;;;5.20;;
75997;SDS011;64685;48.762;44.822;2023-07-09T17:29:45;12.82;;;4.75;;
75997;SDS011;64685;48.762;44.822;2023-07-09T17:34:48;11.48;;;4.32;;
75997;SDS011;64685;48.762;44.822;2023-07-09T17:39:51;8.07;;;3.53;;
75997;SDS011;64685;48.762;44.822;2023-07-09T17:49:56;8.77;;;3.95;;
75997;SDS011;64685;48.762;44.822;2023-07-09T17:54:59;10.15;;;4.50;;
75997;SDS011;64685;48.762;44.822;2023-07-09T18:00:02;9.40;;;4.22;;
75997;SDS011;64685;48.762;44.822;2023-07-09T18:05:26;9.50;;;4.68;;
75997;SDS011;64685;48.762;44.822;2023-07-09T18:10:31;10.85;;;3.95;;
75997;SDS011;64685;48.762;44.822;2023-07-09T18:15:37;9.05;;;3.75;;
75997;SDS011;64685;48.762;44.822;2023-07-09T18:20:40;8.20;;;3.97;;
75997;SDS011;64685;48.762;44.822;2023-07-09T18:25:44;7.55;;;3.60;;
75997;SDS011;64685;48.762;44.822;2023-07-09T18:30:48;9.40;;;3.90;;
75997;SDS011;64685;48.762;44.822;2023-07-09T18:36:07;8.77;;;3.67;;
75997;SDS011;64685;48.762;44.822;2023-07-09T18:41:14;9.38;;;4.38;;
75997;SDS011;64685;48.762;44.822;2023-07-09T18:46:19;8.70;;;4.07;;
75997;SDS011;64685;48.762;44.822;2023-07-09T18:51:21;7.97;;;3.78;;
75997;SDS011;64685;48.762;44.822;2023-07-09T18:56:24;9.02;;;4.20;;
75997;SDS011;64685;48.762;44.822;2023-07-09T19:01:26;7.78;;;3.95;;
75997;SDS011;64685;48.762;44.822;2023-07-09T19:06:29;8.82;;;4.20;;
75997;SDS011;64685;48.762;44.822;2023-07-09T19:11:32;11.90;;;4.60;;
75997;SDS011;64685;48.762;44.822;2023-07-09T19:16:34;14.20;;;4.38;;
75997;SDS011;64685;48.762;44.822;2023-07-09T19:21:37;8.50;;;3.85;;
75997;SDS011;64685;48.762;44.822;2023-07-09T19:26:40;13.25;;;4.30;;
75997;SDS011;64685;48.762;44.822;2023-07-09T19:31:43;10.25;;;4.28;;
75997;SDS011;64685;48.762;44.822;2023-07-09T19:36:48;12.88;;;4.68;;
75997;SDS011;64685;48.762;44.822;2023-07-09T19:41:54;11.07;;;4.20;;
75997;SDS011;64685;48.762;44.822;2023-07-09T19:47:03;8.38;;;3.80;;
75997;SDS011;64685;48.762;44.822;2023-07-09T19:52:08;10.70;;;4.07;;
75997;SDS011;64685;48.762;44.822;2023-07-09T19:57:15;11.45;;;4.65;;
75997;SDS011;64685;48.762;44.822;2023-07-09T20:07:22;11.40;;;4.85;;
75997;SDS011;64685;48.762;44.822;2023-07-09T20:12:24;11.73;;;4.05;;
75997;SDS011;64685;48.762;44.822;2023-07-09T20:17:28;11.55;;;5.00;;
75997;SDS011;64685;48.762;44.822;2023-07-09T20:22:30;9.98;;;4.20;;
75997;SDS011;64685;48.762;44.822;2023-07-09T20:27:33;8.75;;;4.30;;
75997;SDS011;64685;48.762;44.822;2023-07-09T20:32:35;11.98;;;3.72;;
75997;SDS011;64685;48.762;44.822;2023-07-09T20:37:39;10.57;;;4.75;;
75997;SDS011;64685;48.762;44.822;2023-07-09T20:42:41;10.80;;;5.93;;
75997;SDS011;64685;48.762;44.822;2023-07-09T20:47:48;10.40;;;4.93;;
75997;SDS011;64685;48.762;44.822;2023-07-09T20:52:52;10.55;;;4.60;;
75997;SDS011;64685;48.762;44.822;2023-07-09T20:57:55;12.05;;;4.75;;
75997;SDS011;64685;48.762;44.822;2023-07-09T21:02:58;13.30;;;5.22;;
75997;SDS011;64685;48.762;44.822;2023-07-09T21:08:01;10.45;;;5.47;;
75997;SDS011;64685;48.762;44.822;2023-07-09T21:13:12;12.60;;;5.10;;
75997;SDS011;64685;48.762;44.822;2023-07-09T21:18:17;15.07;;;5.38;;
75997;SDS011;64685;48.762;44.822;2023-07-09T21:23:22;13.05;;;5.40;;
75997;SDS011;64685;48.762;44.822;2023-07-09T21:33:27;11.55;;;4.72;;
75997;SDS011;64685;48.762;44.822;2023-07-09T21:38:32;11.38;;;4.18;;
75997;SDS011;64685;48.762;44.822;2023-07-09T21:43:34;9.43;;;4.68;;
75997;SDS011;64685;48.762;44.822;2023-07-09T21:48:40;7.50;;;3.63;;
75997;SDS011;64685;48.762;44.822;2023-07-09T21:53:43;10.10;;;3.70;;
75997;SDS011;64685;48.762;44.822;2023-07-09T21:59:05;9.13;;;3.58;;
75997;SDS011;64685;48.762;44.822;2023-07-09T22:04:15;9.07;;;4.60;;
75997;SDS011;64685;48.762;44.822;2023-07-09T22:09:19;8.40;;;3.97;;
75997;SDS011;64685;48.762;44.822;2023-07-09T22:14:23;7.68;;;3.90;;
75997;SDS011;64685;48.762;44.822;2023-07-09T22:19:27;9.57;;;4.15;;
75997;SDS011;64685;48.762;44.822;2023-07-09T22:24:46;6.88;;;3.50;;
75997;SDS011;64685;48.762;44.822;2023-07-09T22:29:50;8.18;;;3.60;;
75997;SDS011;64685;48.762;44.822;2023-07-09T22:34:54;10.40;;;3.75;;
75997;SDS011;64685;48.762;44.822;2023-07-09T22:40:01;10.63;;;3.92;;
75997;SDS011;64685;48.762;44.822;2023-07-09T22:45:19;9.27;;;3.40;;
75997;SDS011;64685;48.762;44.822;2023-07-09T22:50:26;8.18;;;3.70;;
75997;SDS011;64685;48.762;44.822;2023-07-09T22:55:33;6.90;;;3.55;;
75997;SDS011;64685;48.762;44.822;2023-07-09T23:00:44;9.45;;;3.67;;
75997;SDS011;64685;48.762;44.822;2023-07-09T23:05:50;8.25;;;4.15;;
75997;SDS011;64685;48.762;44.822;2023-07-09T23:10:54;8.90;;;3.97;;
75997;SDS011;64685;48.762;44.822;2023-07-09T23:15:58;9.48;;;4.13;;
75997;SDS011;64685;48.762;44.822;2023-07-09T23:21:04;8.68;;;3.50;;
75997;SDS011;64685;48.762;44.822;2023-07-09T23:26:10;6.85;;;3.90;;
75997;SDS011;64685;48.762;44.822;2023-07-09T23:31:22;8.70;;;3.83;;
75997;SDS011;64685;48.762;44.822;2023-07-09T23:36:26;7.53;;;3.80;;
75997;SDS011;64685;48.762;44.822;2023-07-09T23:41:29;8.35;;;3.75;;
75997;SDS011;64685;48.762;44.822;2023-07-09T23:46:38;8.93;;;4.30;;
75997;SDS011;64685;48.762;44.822;2023-07-09T23:51:41;8.63;;;4.00;;
75997;SDS011;64685;48.762;44.822;2023-07-09T23:56:47;9.80;;;3.60;;
